sensor_id;sensor_type;location;lat;lon;timestamp;pressure;altitude;pressure_sealevel;temperature;humidity
6413;BME280;3239;48.714;9.472;2023-11-19T00:00:16;97490.34;;;7.46;100.00
6413;BME280;3239;48.714;9.472;2023-11-19T00:02:42;97482.50;;;7.55;100.00
6413;BME280;3239;48.714;9.472;2023-11-19T00:05:09;97456.84;;;7.64;100.00
6413;BME280;3239;48.714;9.472;2023-11-19T00:07:37;97445.63;;;7.67;100.00
6413;BME280;3239;48.714;9.472;2023-11-19T00:10:05;97437.88;;;7.71;100.00
6413;BME280;3239;48.714;9.472;2023-11-19T00:12:32;97433.50;;;7.68;100.00
6413;BME280;3239;48.714;9.472;2023-11-19T00:14:58;97424.13;;;7.64;100.00
6413;BME280;3239;48.714;9.472;2023-11-19T00:17:24;97406.94;;;7.69;100.00
6413;BME280;3239;48.714;9.472;2023-11-19T00:19:49;97402.34;;;7.77;100.00
6413;BME280;3239;48.714;9.472;2023-11-19T00:22:17;97386.09;;;7.84;100.00
6413;BME280;3239;48.714;9.472;2023-11-19T00:24:42;97379.38;;;7.85;100.00
6413;BME280;3239;48.714;9.472;2023-11-19T00:27:08;97366.47;;;7.86;100.00
6413;BME280;3239;48.714;9.472;2023-11-19T00:29:34;97352.75;;;7.91;100.00
6413;BME280;3239;48.714;9.472;2023-11-19T00:32:00;97340.16;;;7.88;100.00
6413;BME280;3239;48.714;9.472;2023-11-19T00:34:25;97337.66;;;7.90;100.00
6413;BME280;3239;48.714;9.472;2023-11-19T00:36:51;97328.53;;;7.88;100.00
6413;BME280;3239;48.714;9.472;2023-11-19T00:39:17;97317.28;;;7.91;100.00
6413;BME280;3239;48.714;9.472;2023-11-19T00:41:43;97312.97;;;7.96;100.00
6413;BME280;3239;48.714;9.472;2023-11-19T00:44:09;97311.94;;;7.99;100.00
6413;BME280;3239;48.714;9.472;2023-11-19T00:46:35;97307.94;;;8.00;100.00
6413;BME280;3239;48.714;9.472;2023-11-19T00:49:00;97298.50;;;8.01;100.00
6413;BME280;3239;48.714;9.472;2023-11-19T00:51:26;97291.06;;;8.01;100.00
6413;BME280;3239;48.714;9.472;2023-11-19T00:53:52;97278.34;;;8.04;100.00
6413;BME280;3239;48.714;9.472;2023-11-19T00:56:21;97265.44;;;8.04;100.00
6413;BME280;3239;48.714;9.472;2023-11-19T00:58:46;97270.25;;;8.11;100.00
6413;BME280;3239;48.714;9.472;2023-11-19T01:01:13;97246.97;;;8.10;100.00
6413;BME280;3239;48.714;9.472;2023-11-19T01:03:38;97240.25;;;8.11;100.00
6413;BME280;3239;48.714;9.472;2023-11-19T01:06:05;97238.25;;;8.12;100.00
6413;BME280;3239;48.714;9.472;2023-11-19T01:08:30;97227.25;;;8.04;100.00
6413;BME280;3239;48.714;9.472;2023-11-19T01:10:56;97212.41;;;8.26;100.00
6413;BME280;3239;48.714;9.472;2023-11-19T01:13:22;97210.84;;;8.17;100.00
6413;BME280;3239;48.714;9.472;2023-11-19T01:15:48;97191.00;;;8.30;100.00
6413;BME280;3239;48.714;9.472;2023-11-19T01:18:14;97181.47;;;8.23;100.00
6413;BME280;3239;48.714;9.472;2023-11-19T01:20:40;97165.69;;;8.29;100.00
6413;BME280;3239;48.714;9.472;2023-11-19T01:23:05;97156.06;;;8.28;100.00
6413;BME280;3239;48.714;9.472;2023-11-19T01:25:31;97147.13;;;8.28;100.00
6413;BME280;3239;48.714;9.472;2023-11-19T01:27:57;97143.53;;;8.33;100.00
6413;BME280;3239;48.714;9.472;2023-11-19T01:30:24;97120.84;;;8.38;100.00
6413;BME280;3239;48.714;9.472;2023-11-19T01:32:50;97108.19;;;8.48;100.00
6413;BME280;3239;48.714;9.472;2023-11-19T01:35:16;97102.53;;;8.46;100.00
6413;BME280;3239;48.714;9.472;2023-11-19T01:37:41;97096.00;;;8.49;100.00
6413;BME280;3239;48.714;9.472;2023-11-19T01:40:07;97083.63;;;8.48;100.00
6413;BME280;3239;48.714;9.472;2023-11-19T01:42:39;97065.66;;;8.52;100.00
6413;BME280;3239;48.714;9.472;2023-11-19T01:45:05;97043.81;;;8.52;100.00
6413;BME280;3239;48.714;9.472;2023-11-19T01:47:35;97036.88;;;8.51;100.00
6413;BME280;3239;48.714;9.472;2023-11-19T01:50:02;97024.50;;;8.50;100.00
6413;BME280;3239;48.714;9.472;2023-11-19T01:52:33;97022.56;;;8.58;100.00
6413;BME280;3239;48.714;9.472;2023-11-19T01:55:00;97011.06;;;8.60;100.00
6413;BME280;3239;48.714;9.472;2023-11-19T01:57:26;96999.97;;;8.58;100.00
6413;BME280;3239;48.714;9.472;2023-11-19T01:59:53;96996.53;;;8.65;100.00
6413;BME280;3239;48.714;9.472;2023-11-19T02:02:19;96992.75;;;8.68;100.00
6413;BME280;3239;48.714;9.472;2023-11-19T02:04:49;96988.34;;;8.65;100.00
6413;BME280;3239;48.714;9.472;2023-11-19T02:07:15;96969.47;;;8.74;100.00
6413;BME280;3239;48.714;9.472;2023-11-19T02:09:43;96956.91;;;8.71;100.00
6413;BME280;3239;48.714;9.472;2023-11-19T02:12:10;96948.88;;;8.73;100.00
6413;BME280;3239;48.714;9.472;2023-11-19T02:14:39;96933.78;;;8.72;100.00
6413;BME280;3239;48.714;9.472;2023-11-19T02:17:05;96918.31;;;8.75;100.00
6413;BME280;3239;48.714;9.472;2023-11-19T02:19:31;96895.75;;;8.74;100.00
6413;BME280;3239;48.714;9.472;2023-11-19T02:21:56;96876.47;;;8.80;100.00
6413;BME280;3239;48.714;9.472;2023-11-19T02:24:22;96878.84;;;8.83;100.00
6413;BME280;3239;48.714;9.472;2023-11-19T02:27:04;96863.19;;;8.84;100.00
6413;BME280;3239;48.714;9.472;2023-11-19T02:29:33;96847.34;;;8.82;100.00
6413;BME280;3239;48.714;9.472;2023-11-19T02:32:00;96839.69;;;8.81;100.00
6413;BME280;3239;48.714;9.472;2023-11-19T02:34:28;96812.03;;;8.84;100.00
6413;BME280;3239;48.714;9.472;2023-11-19T02:36:54;96802.75;;;8.87;100.00
6413;BME280;3239;48.714;9.472;2023-11-19T02:39:20;96794.75;;;8.89;100.00
6413;BME280;3239;48.714;9.472;2023-11-19T02:41:47;96781.81;;;8.90;100.00
6413;BME280;3239;48.714;9.472;2023-11-19T02:44:16;96780.38;;;8.89;100.00
6413;BME280;3239;48.714;9.472;2023-11-19T02:46:42;96772.72;;;8.87;100.00
6413;BME280;3239;48.714;9.472;2023-11-19T02:49:08;96765.78;;;8.86;100.00
6413;BME280;3239;48.714;9.472;2023-11-19T02:51:34;96756.69;;;8.99;100.00
6413;BME280;3239;48.714;9.472;2023-11-19T02:54:01;96753.06;;;8.96;100.00
6413;BME280;3239;48.714;9.472;2023-11-19T02:56:29;96742.84;;;8.97;100.00
6413;BME280;3239;48.714;9.472;2023-11-19T02:59:00;96743.03;;;8.99;100.00
6413;BME280;3239;48.714;9.472;2023-11-19T03:01:33;96741.38;;;9.03;100.00
6413;BME280;3239;48.714;9.472;2023-11-19T03:04:01;96730.47;;;9.03;100.00
6413;BME280;3239;48.714;9.472;2023-11-19T03:06:27;96732.47;;;9.03;100.00
6413;BME280;3239;48.714;9.472;2023-11-19T03:08:55;96719.38;;;9.01;100.00
6413;BME280;3239;48.714;9.472;2023-11-19T03:11:21;96718.63;;;9.08;100.00
6413;BME280;3239;48.714;9.472;2023-11-19T03:13:47;96705.50;;;9.07;100.00
6413;BME280;3239;48.714;9.472;2023-11-19T03:16:13;96702.59;;;9.05;100.00
6413;BME280;3239;48.714;9.472;2023-11-19T03:18:39;96700.25;;;9.09;100.00
6413;BME280;3239;48.714;9.472;2023-11-19T03:21:08;96683.09;;;9.08;100.00
6413;BME280;3239;48.714;9.472;2023-11-19T03:23:34;96682.56;;;9.10;100.00
6413;BME280;3239;48.714;9.472;2023-11-19T03:26:00;96680.00;;;9.12;100.00
6413;BME280;3239;48.714;9.472;2023-11-19T03:28:29;96671.63;;;9.10;100.00
6413;BME280;3239;48.714;9.472;2023-11-19T03:30:56;96666.53;;;9.14;100.00
6413;BME280;3239;48.714;9.472;2023-11-19T03:33:22;96648.31;;;9.16;100.00
6413;BME280;3239;48.714;9.472;2023-11-19T03:35:47;96649.25;;;9.11;100.00
6413;BME280;3239;48.714;9.472;2023-11-19T03:38:13;96637.75;;;9.13;100.00
6413;BME280;3239;48.714;9.472;2023-11-19T03:40:40;96632.28;;;9.13;100.00
6413;BME280;3239;48.714;9.472;2023-11-19T03:43:06;96627.72;;;9.15;100.00
6413;BME280;3239;48.714;9.472;2023-11-19T03:45:31;96615.34;;;9.14;100.00
6413;BME280;3239;48.714;9.472;2023-11-19T03:47:57;96604.59;;;9.16;100.00
6413;BME280;3239;48.714;9.472;2023-11-19T03:50:23;96593.09;;;9.18;100.00
6413;BME280;3239;48.714;9.472;2023-11-19T03:52:49;96578.72;;;9.17;100.00
6413;BME280;3239;48.714;9.472;2023-11-19T03:55:15;96564.69;;;9.21;100.00
6413;BME280;3239;48.714;9.472;2023-11-19T03:57:41;96553.94;;;9.15;100.00
6413;BME280;3239;48.714;9.472;2023-11-19T04:00:07;96545.22;;;9.17;100.00
6413;BME280;3239;48.714;9.472;2023-11-19T04:02:36;96543.22;;;9.17;100.00
6413;BME280;3239;48.714;9.472;2023-11-19T04:05:02;96533.56;;;9.16;100.00
6413;BME280;3239;48.714;9.472;2023-11-19T04:07:29;96514.06;;;9.20;100.00
6413;BME280;3239;48.714;9.472;2023-11-19T04:09:55;96503.28;;;9.22;100.00
6413;BME280;3239;48.714;9.472;2023-11-19T04:12:20;96469.81;;;9.21;100.00
6413;BME280;3239;48.714;9.472;2023-11-19T04:14:47;96456.47;;;9.25;100.00
6413;BME280;3239;48.714;9.472;2023-11-19T04:17:13;96426.91;;;9.31;100.00
6413;BME280;3239;48.714;9.472;2023-11-19T04:19:38;96436.97;;;9.29;100.00
6413;BME280;3239;48.714;9.472;2023-11-19T04:22:10;96431.16;;;9.25;100.00
6413;BME280;3239;48.714;9.472;2023-11-19T04:24:36;96434.06;;;9.27;100.00
6413;BME280;3239;48.714;9.472;2023-11-19T04:27:02;96414.72;;;9.32;100.00
6413;BME280;3239;48.714;9.472;2023-11-19T04:29:30;96387.69;;;9.36;100.00
6413;BME280;3239;48.714;9.472;2023-11-19T04:31:56;96380.91;;;9.45;100.00
6413;BME280;3239;48.714;9.472;2023-11-19T04:34:22;96377.06;;;9.48;100.00
6413;BME280;3239;48.714;9.472;2023-11-19T04:36:48;96363.16;;;9.53;100.00
6413;BME280;3239;48.714;9.472;2023-11-19T04:39:14;96370.88;;;9.47;100.00
6413;BME280;3239;48.714;9.472;2023-11-19T04:41:51;96363.88;;;9.54;100.00
6413;BME280;3239;48.714;9.472;2023-11-19T04:44:20;96344.03;;;9.53;100.00
6413;BME280;3239;48.714;9.472;2023-11-19T04:46:46;96332.69;;;9.57;100.00
6413;BME280;3239;48.714;9.472;2023-11-19T04:49:13;96338.16;;;9.57;100.00
6413;BME280;3239;48.714;9.472;2023-11-19T04:51:41;96325.47;;;9.69;100.00
6413;BME280;3239;48.714;9.472;2023-11-19T04:54:10;96325.38;;;9.59;100.00
6413;BME280;3239;48.714;9.472;2023-11-19T04:56:36;96316.78;;;9.63;100.00
6413;BME280;3239;48.714;9.472;2023-11-19T04:59:03;96301.41;;;9.67;100.00
6413;BME280;3239;48.714;9.472;2023-11-19T05:01:31;96298.38;;;9.63;100.00
6413;BME280;3239;48.714;9.472;2023-11-19T05:03:57;96277.00;;;9.69;100.00
6413;BME280;3239;48.714;9.472;2023-11-19T05:06:29;96251.66;;;9.69;100.00
6413;BME280;3239;48.714;9.472;2023-11-19T05:08:57;96237.06;;;9.83;100.00
6413;BME280;3239;48.714;9.472;2023-11-19T05:11:23;96226.13;;;9.83;100.00
6413;BME280;3239;48.714;9.472;2023-11-19T05:13:49;96213.34;;;9.86;100.00
6413;BME280;3239;48.714;9.472;2023-11-19T05:16:16;96195.34;;;9.83;100.00
6413;BME280;3239;48.714;9.472;2023-11-19T05:18:43;96197.34;;;9.82;100.00
6413;BME280;3239;48.714;9.472;2023-11-19T05:21:08;96191.06;;;9.89;100.00
6413;BME280;3239;48.714;9.472;2023-11-19T05:23:34;96188.94;;;9.97;100.00
6413;BME280;3239;48.714;9.472;2023-11-19T05:26:03;96177.69;;;9.93;100.00
6413;BME280;3239;48.714;9.472;2023-11-19T05:28:29;96170.22;;;9.94;100.00
6413;BME280;3239;48.714;9.472;2023-11-19T05:30:55;96158.88;;;9.97;100.00
6413;BME280;3239;48.714;9.472;2023-11-19T05:33:21;96155.31;;;10.04;100.00
6413;BME280;3239;48.714;9.472;2023-11-19T05:35:47;96164.88;;;10.13;100.00
6413;BME280;3239;48.714;9.472;2023-11-19T05:38:13;96157.38;;;10.13;100.00
6413;BME280;3239;48.714;9.472;2023-11-19T05:40:41;96155.53;;;10.16;100.00
6413;BME280;3239;48.714;9.472;2023-11-19T05:43:06;96161.16;;;10.18;100.00
6413;BME280;3239;48.714;9.472;2023-11-19T05:45:32;96160.03;;;10.21;100.00
6413;BME280;3239;48.714;9.472;2023-11-19T05:47:58;96161.03;;;10.25;100.00
6413;BME280;3239;48.714;9.472;2023-11-19T05:50:24;96169.09;;;10.23;100.00
6413;BME280;3239;48.714;9.472;2023-11-19T05:52:50;96161.50;;;10.31;100.00
6413;BME280;3239;48.714;9.472;2023-11-19T05:55:18;96162.53;;;10.36;100.00
6413;BME280;3239;48.714;9.472;2023-11-19T05:57:45;96169.31;;;10.35;100.00
6413;BME280;3239;48.714;9.472;2023-11-19T06:00:11;96185.41;;;10.31;100.00
6413;BME280;3239;48.714;9.472;2023-11-19T06:02:38;96182.81;;;10.33;100.00
6413;BME280;3239;48.714;9.472;2023-11-19T06:05:05;96189.63;;;10.41;100.00
6413;BME280;3239;48.714;9.472;2023-11-19T06:07:33;96188.22;;;10.50;100.00
6413;BME280;3239;48.714;9.472;2023-11-19T06:09:58;96195.69;;;10.40;100.00
6413;BME280;3239;48.714;9.472;2023-11-19T06:12:24;96195.72;;;10.49;100.00
6413;BME280;3239;48.714;9.472;2023-11-19T06:14:50;96199.66;;;10.56;100.00
6413;BME280;3239;48.714;9.472;2023-11-19T06:17:15;96204.09;;;10.51;100.00
6413;BME280;3239;48.714;9.472;2023-11-19T06:19:41;96199.06;;;10.57;100.00
6413;BME280;3239;48.714;9.472;2023-11-19T06:22:07;96203.66;;;10.55;100.00
6413;BME280;3239;48.714;9.472;2023-11-19T06:24:33;96203.25;;;10.58;100.00
6413;BME280;3239;48.714;9.472;2023-11-19T06:26:58;96204.84;;;10.61;100.00
6413;BME280;3239;48.714;9.472;2023-11-19T06:29:24;96216.66;;;10.64;100.00
6413;BME280;3239;48.714;9.472;2023-11-19T06:31:50;96217.69;;;10.68;100.00
6413;BME280;3239;48.714;9.472;2023-11-19T06:34:16;96217.28;;;10.72;100.00
6413;BME280;3239;48.714;9.472;2023-11-19T06:36:42;96225.34;;;10.70;100.00
6413;BME280;3239;48.714;9.472;2023-11-19T06:39:09;96228.13;;;10.79;100.00
6413;BME280;3239;48.714;9.472;2023-11-19T06:41:36;96238.59;;;10.73;100.00
6413;BME280;3239;48.714;9.472;2023-11-19T06:44:04;96239.78;;;10.80;100.00
6413;BME280;3239;48.714;9.472;2023-11-19T06:46:30;96241.41;;;10.83;100.00
6413;BME280;3239;48.714;9.472;2023-11-19T06:48:57;96246.75;;;10.90;100.00
6413;BME280;3239;48.714;9.472;2023-11-19T06:51:23;96252.25;;;10.90;100.00
6413;BME280;3239;48.714;9.472;2023-11-19T06:53:50;96260.78;;;11.04;100.00
6413;BME280;3239;48.714;9.472;2023-11-19T06:56:25;96273.88;;;10.96;100.00
6413;BME280;3239;48.714;9.472;2023-11-19T06:58:51;96294.91;;;10.93;100.00
6413;BME280;3239;48.714;9.472;2023-11-19T07:01:17;96299.69;;;10.93;100.00
6413;BME280;3239;48.714;9.472;2023-11-19T07:03:45;96298.38;;;10.94;100.00
6413;BME280;3239;48.714;9.472;2023-11-19T07:06:12;96310.66;;;10.93;100.00
6413;BME280;3239;48.714;9.472;2023-11-19T07:08:44;96309.50;;;10.96;100.00
6413;BME280;3239;48.714;9.472;2023-11-19T07:11:13;96312.66;;;10.92;100.00
6413;BME280;3239;48.714;9.472;2023-11-19T07:13:42;96328.53;;;10.94;100.00
6413;BME280;3239;48.714;9.472;2023-11-19T07:16:08;96339.47;;;10.94;100.00
6413;BME280;3239;48.714;9.472;2023-11-19T07:18:37;96340.06;;;11.02;100.00
6413;BME280;3239;48.714;9.472;2023-11-19T07:21:04;96343.97;;;10.99;100.00
6413;BME280;3239;48.714;9.472;2023-11-19T07:23:30;96356.28;;;11.07;100.00
6413;BME280;3239;48.714;9.472;2023-11-19T07:25:56;96363.94;;;11.09;100.00
6413;BME280;3239;48.714;9.472;2023-11-19T07:28:22;96365.38;;;11.10;100.00
6413;BME280;3239;48.714;9.472;2023-11-19T07:30:48;96382.06;;;11.04;100.00
6413;BME280;3239;48.714;9.472;2023-11-19T07:33:15;96386.09;;;11.03;100.00
6413;BME280;3239;48.714;9.472;2023-11-19T07:35:42;96387.13;;;11.08;100.00
6413;BME280;3239;48.714;9.472;2023-11-19T07:38:08;96387.13;;;11.08;100.00
6413;BME280;3239;48.714;9.472;2023-11-19T07:40:33;96391.78;;;11.15;100.00
6413;BME280;3239;48.714;9.472;2023-11-19T07:42:59;96396.38;;;11.12;100.00
6413;BME280;3239;48.714;9.472;2023-11-19T07:45:25;96399.63;;;11.28;100.00
6413;BME280;3239;48.714;9.472;2023-11-19T07:47:52;96400.72;;;11.15;100.00
6413;BME280;3239;48.714;9.472;2023-11-19T07:50:18;96421.19;;;11.14;100.00
6413;BME280;3239;48.714;9.472;2023-11-19T07:52:45;96427.03;;;11.28;100.00
6413;BME280;3239;48.714;9.472;2023-11-19T07:55:11;96439.44;;;11.29;100.00
6413;BME280;3239;48.714;9.472;2023-11-19T07:57:37;96449.41;;;11.34;100.00
6413;BME280;3239;48.714;9.472;2023-11-19T08:00:04;96466.56;;;11.25;100.00
6413;BME280;3239;48.714;9.472;2023-11-19T08:02:30;96470.78;;;11.35;100.00
6413;BME280;3239;48.714;9.472;2023-11-19T08:04:55;96491.53;;;11.29;100.00
6413;BME280;3239;48.714;9.472;2023-11-19T08:07:22;96495.63;;;11.37;100.00
6413;BME280;3239;48.714;9.472;2023-11-19T08:09:48;96506.59;;;11.37;100.00
6413;BME280;3239;48.714;9.472;2023-11-19T08:12:13;96504.16;;;11.41;100.00
6413;BME280;3239;48.714;9.472;2023-11-19T08:14:43;96514.13;;;11.46;100.00
6413;BME280;3239;48.714;9.472;2023-11-19T08:17:09;96529.38;;;11.57;100.00
6413;BME280;3239;48.714;9.472;2023-11-19T08:19:35;96543.31;;;11.51;100.00
6413;BME280;3239;48.714;9.472;2023-11-19T08:22:01;96541.13;;;11.50;100.00
6413;BME280;3239;48.714;9.472;2023-11-19T08:24:27;96564.13;;;11.54;100.00
6413;BME280;3239;48.714;9.472;2023-11-19T08:26:53;96568.56;;;11.67;100.00
6413;BME280;3239;48.714;9.472;2023-11-19T08:29:19;96587.78;;;11.67;100.00
6413;BME280;3239;48.714;9.472;2023-11-19T08:31:45;96586.78;;;11.72;100.00
6413;BME280;3239;48.714;9.472;2023-11-19T08:34:11;96610.47;;;11.77;100.00
6413;BME280;3239;48.714;9.472;2023-11-19T08:36:37;96622.22;;;11.87;100.00
6413;BME280;3239;48.714;9.472;2023-11-19T08:39:03;96626.72;;;11.92;100.00
6413;BME280;3239;48.714;9.472;2023-11-19T08:41:28;96650.16;;;11.93;100.00
6413;BME280;3239;48.714;9.472;2023-11-19T08:43:54;96671.53;;;11.94;100.00
6413;BME280;3239;48.714;9.472;2023-11-19T08:46:20;96694.91;;;11.95;100.00
6413;BME280;3239;48.714;9.472;2023-11-19T08:48:45;96708.91;;;12.16;100.00
6413;BME280;3239;48.714;9.472;2023-11-19T08:51:12;96717.91;;;12.43;100.00
6413;BME280;3239;48.714;9.472;2023-11-19T08:53:38;96726.91;;;12.89;100.00
6413;BME280;3239;48.714;9.472;2023-11-19T08:56:04;96751.78;;;13.27;100.00
6413;BME280;3239;48.714;9.472;2023-11-19T08:58:30;96794.06;;;13.32;100.00
6413;BME280;3239;48.714;9.472;2023-11-19T09:00:56;96861.38;;;13.31;100.00
6413;BME280;3239;48.714;9.472;2023-11-19T09:03:22;96985.13;;;13.04;100.00
6413;BME280;3239;48.714;9.472;2023-11-19T09:05:48;97113.91;;;12.91;100.00
6413;BME280;3239;48.714;9.472;2023-11-19T09:08:14;97238.13;;;12.97;100.00
6413;BME280;3239;48.714;9.472;2023-11-19T09:10:39;97350.38;;;12.83;100.00
6413;BME280;3239;48.714;9.472;2023-11-19T09:13:05;97439.78;;;12.84;100.00
6413;BME280;3239;48.714;9.472;2023-11-19T09:15:30;97502.28;;;12.84;100.00
6413;BME280;3239;48.714;9.472;2023-11-19T09:17:56;97542.78;;;12.98;100.00
6413;BME280;3239;48.714;9.472;2023-11-19T09:20:22;97557.09;;;13.76;100.00
6413;BME280;3239;48.714;9.472;2023-11-19T09:22:47;97613.91;;;14.20;100.00
6413;BME280;3239;48.714;9.472;2023-11-19T09:25:13;97686.03;;;14.58;100.00
6413;BME280;3239;48.714;9.472;2023-11-19T09:27:43;97740.91;;;14.71;100.00
6413;BME280;3239;48.714;9.472;2023-11-19T09:30:09;97833.53;;;14.35;100.00
6413;BME280;3239;48.714;9.472;2023-11-19T09:32:35;97868.00;;;14.58;100.00
6413;BME280;3239;48.714;9.472;2023-11-19T09:35:00;97903.97;;;14.06;100.00
6413;BME280;3239;48.714;9.472;2023-11-19T09:37:26;97961.44;;;13.94;100.00
6413;BME280;3239;48.714;9.472;2023-11-19T09:39:52;97987.69;;;13.88;100.00
6413;BME280;3239;48.714;9.472;2023-11-19T09:42:19;98001.81;;;13.62;100.00
6413;BME280;3239;48.714;9.472;2023-11-19T09:44:44;98019.06;;;13.62;100.00
6413;BME280;3239;48.714;9.472;2023-11-19T09:47:11;98032.63;;;13.53;100.00
6413;BME280;3239;48.714;9.472;2023-11-19T09:49:38;98047.09;;;13.46;100.00
6413;BME280;3239;48.714;9.472;2023-11-19T09:52:04;98057.56;;;13.55;100.00
6413;BME280;3239;48.714;9.472;2023-11-19T09:54:30;98066.63;;;13.85;100.00
6413;BME280;3239;48.714;9.472;2023-11-19T09:56:58;98075.81;;;13.95;100.00
6413;BME280;3239;48.714;9.472;2023-11-19T09:59:29;98086.81;;;13.88;100.00
6413;BME280;3239;48.714;9.472;2023-11-19T10:01:55;98086.09;;;13.87;100.00
6413;BME280;3239;48.714;9.472;2023-11-19T10:04:22;98094.38;;;13.87;100.00
6413;BME280;3239;48.714;9.472;2023-11-19T10:06:49;98105.94;;;13.93;100.00
6413;BME280;3239;48.714;9.472;2023-11-19T10:09:15;98107.41;;;13.94;100.00
6413;BME280;3239;48.714;9.472;2023-11-19T10:11:41;98104.13;;;13.96;100.00
6413;BME280;3239;48.714;9.472;2023-11-19T10:14:06;98104.53;;;14.45;100.00
6413;BME280;3239;48.714;9.472;2023-11-19T10:16:34;98108.75;;;14.91;100.00
6413;BME280;3239;48.714;9.472;2023-11-19T10:18:59;98113.91;;;14.64;100.00
6413;BME280;3239;48.714;9.472;2023-11-19T10:21:25;98118.88;;;14.73;100.00
6413;BME280;3239;48.714;9.472;2023-11-19T10:23:54;98111.72;;;14.55;100.00
6413;BME280;3239;48.714;9.472;2023-11-19T10:26:22;98118.16;;;14.50;100.00
6413;BME280;3239;48.714;9.472;2023-11-19T10:28:48;98110.06;;;14.60;100.00
6413;BME280;3239;48.714;9.472;2023-11-19T10:31:15;98114.25;;;14.91;100.00
6413;BME280;3239;48.714;9.472;2023-11-19T10:33:41;98091.50;;;14.75;100.00
6413;BME280;3239;48.714;9.472;2023-11-19T10:36:07;98089.75;;;15.10;100.00
6413;BME280;3239;48.714;9.472;2023-11-19T10:38:33;98074.31;;;14.99;100.00
6413;BME280;3239;48.714;9.472;2023-11-19T10:40:59;98064.63;;;14.76;100.00
6413;BME280;3239;48.714;9.472;2023-11-19T10:43:25;98074.81;;;14.36;100.00
6413;BME280;3239;48.714;9.472;2023-11-19T10:45:51;98081.19;;;14.46;100.00
6413;BME280;3239;48.714;9.472;2023-11-19T10:48:17;98087.28;;;14.29;100.00
6413;BME280;3239;48.714;9.472;2023-11-19T10:50:44;98086.16;;;14.25;100.00
6413;BME280;3239;48.714;9.472;2023-11-19T10:53:12;98088.22;;;14.47;100.00
6413;BME280;3239;48.714;9.472;2023-11-19T10:55:41;98097.94;;;14.78;100.00
6413;BME280;3239;48.714;9.472;2023-11-19T10:58:09;98090.72;;;14.97;100.00
6413;BME280;3239;48.714;9.472;2023-11-19T11:00:41;98095.75;;;16.10;100.00
6413;BME280;3239;48.714;9.472;2023-11-19T11:03:14;98080.97;;;17.15;100.00
6413;BME280;3239;48.714;9.472;2023-11-19T11:05:40;98063.47;;;17.99;100.00
6413;BME280;3239;48.714;9.472;2023-11-19T11:08:08;98029.13;;;18.76;100.00
6413;BME280;3239;48.714;9.472;2023-11-19T11:10:54;97978.66;;;18.32;100.00
6413;BME280;3239;48.714;9.472;2023-11-19T11:13:22;97961.50;;;17.35;100.00
6413;BME280;3239;48.714;9.472;2023-11-19T11:15:48;97978.13;;;17.98;100.00
6413;BME280;3239;48.714;9.472;2023-11-19T11:18:14;97976.38;;;17.13;100.00
6413;BME280;3239;48.714;9.472;2023-11-19T11:20:40;97988.84;;;16.88;100.00
6413;BME280;3239;48.714;9.472;2023-11-19T11:29:08;98011.44;;;15.69;100.00
6413;BME280;3239;48.714;9.472;2023-11-19T11:31:48;98039.91;;;15.55;100.00
6413;BME280;3239;48.714;9.472;2023-11-19T11:37:10;98059.22;;;15.08;100.00
6413;BME280;3239;48.714;9.472;2023-11-19T11:39:43;98066.03;;;14.99;100.00
6413;BME280;3239;48.714;9.472;2023-11-19T11:45:07;98089.00;;;15.09;100.00
6413;BME280;3239;48.714;9.472;2023-11-19T11:50:12;98103.22;;;14.91;100.00
6413;BME280;3239;48.714;9.472;2023-11-19T11:55:28;98098.09;;;14.80;100.00
6413;BME280;3239;48.714;9.472;2023-11-19T11:57:59;98088.91;;;14.85;100.00
6413;BME280;3239;48.714;9.472;2023-11-19T12:00:29;98092.72;;;14.97;100.00
6413;BME280;3239;48.714;9.472;2023-11-19T12:02:56;98081.31;;;14.93;100.00
6413;BME280;3239;48.714;9.472;2023-11-19T12:05:21;98081.53;;;14.80;100.00
6413;BME280;3239;48.714;9.472;2023-11-19T12:08:18;98058.50;;;15.00;100.00
6413;BME280;3239;48.714;9.472;2023-11-19T12:10:52;98058.16;;;14.96;100.00
6413;BME280;3239;48.714;9.472;2023-11-19T12:13:20;98056.31;;;14.98;100.00
6413;BME280;3239;48.714;9.472;2023-11-19T12:18:28;98039.69;;;15.21;100.00
6413;BME280;3239;48.714;9.472;2023-11-19T12:20:55;98033.44;;;15.13;100.00
6413;BME280;3239;48.714;9.472;2023-11-19T12:23:22;98022.59;;;15.86;100.00
6413;BME280;3239;48.714;9.472;2023-11-19T12:25:48;97995.47;;;16.34;100.00
6413;BME280;3239;48.714;9.472;2023-11-19T12:28:17;97969.31;;;17.82;100.00
6413;BME280;3239;48.714;9.472;2023-11-19T12:30:43;97946.75;;;18.05;100.00
6413;BME280;3239;48.714;9.472;2023-11-19T12:33:09;97956.75;;;18.27;100.00
6413;BME280;3239;48.714;9.472;2023-11-19T12:35:43;97951.53;;;18.88;100.00
6413;BME280;3239;48.714;9.472;2023-11-19T12:38:25;97973.13;;;19.37;100.00
6413;BME280;3239;48.714;9.472;2023-11-19T12:41:05;97986.31;;;18.89;100.00
6413;BME280;3239;48.714;9.472;2023-11-19T12:43:32;97980.22;;;17.27;100.00
6413;BME280;3239;48.714;9.472;2023-11-19T12:46:00;97999.13;;;16.95;100.00
6413;BME280;3239;48.714;9.472;2023-11-19T12:48:26;97999.25;;;16.04;100.00
6413;BME280;3239;48.714;9.472;2023-11-19T12:50:55;97999.06;;;15.78;100.00
6413;BME280;3239;48.714;9.472;2023-11-19T12:53:23;98005.22;;;15.69;100.00
6413;BME280;3239;48.714;9.472;2023-11-19T12:55:49;98005.25;;;15.61;100.00
6413;BME280;3239;48.714;9.472;2023-11-19T12:58:35;98012.44;;;16.55;100.00
6413;BME280;3239;48.714;9.472;2023-11-19T13:01:08;97991.31;;;17.44;100.00
6413;BME280;3239;48.714;9.472;2023-11-19T13:03:38;97988.53;;;16.67;100.00
6413;BME280;3239;48.714;9.472;2023-11-19T13:06:09;97991.84;;;16.48;100.00
6413;BME280;3239;48.714;9.472;2023-11-19T13:08:47;97993.28;;;17.61;100.00
6413;BME280;3239;48.714;9.472;2023-11-19T13:11:34;97976.06;;;18.91;100.00
6413;BME280;3239;48.714;9.472;2023-11-19T13:14:04;98004.38;;;18.33;100.00
6413;BME280;3239;48.714;9.472;2023-11-19T13:16:30;97993.16;;;18.50;100.00
6413;BME280;3239;48.714;9.472;2023-11-19T13:18:56;97992.13;;;19.90;100.00
6413;BME280;3239;48.714;9.472;2023-11-19T13:21:23;98003.53;;;21.08;100.00
6413;BME280;3239;48.714;9.472;2023-11-19T13:23:49;97988.84;;;19.63;100.00
6413;BME280;3239;48.714;9.472;2023-11-19T13:26:15;98007.19;;;18.61;100.00
6413;BME280;3239;48.714;9.472;2023-11-19T13:28:41;98013.19;;;18.58;100.00
6413;BME280;3239;48.714;9.472;2023-11-19T13:31:07;98009.91;;;17.17;100.00
6413;BME280;3239;48.714;9.472;2023-11-19T13:33:33;98018.19;;;17.17;100.00